Time;durP1;ratioP1;P1;durP2;ratioP2;P2;SDS_P1;SDS_P2;PMS_P1;PMS_P2;Temp;Humidity;BMP_temperature;BMP_pressure;BME280_temperature;BME280_humidity;BME280_pressure;Samples;Min_cycle;Max_cycle;Signal;HPM_P1;HPM_P2
2022/01/28 00:00:14;;;;;;;21.25;11.18;;;;;;;3.39;91.76;99076.27;1660326;86;25660;-74
2022/01/28 00:05:17;;;;;;;16.27;9.43;;;;;;;3.39;91.77;99077.09;1660792;86;25531;-74
2022/01/28 00:07:40;;;;;;;16.82;8.83;;;;;;;3.41;91.22;99089.62;1637970;86;27400;-74
2022/01/28 00:10:07;;;;;;;17.27;8.30;;;;;;;3.41;91.40;99084.27;1660671;86;25728;-74
2022/01/28 00:12:35;;;;;;;18.77;8.58;;;;;;;3.43;90.59;99094.67;1660721;86;25692;-74
2022/01/28 00:15:13;;;;;;;14.45;8.63;;;;;;;3.44;90.69;99085.03;1660737;86;25792;-74
2022/01/28 00:18:06;;;;;;;18.67;8.90;;;;;;;3.48;90.24;99087.91;1658871;85;25475;-74
2022/01/28 00:37:02;;;;;;;15.18;7.85;;;;;;;3.52;88.74;99085.71;1719446;83;25584;-73
2022/01/28 00:39:15;;;;;;;14.38;8.13;;;;;;;3.53;89.58;99059.77;1698412;83;25636;-73
2022/01/28 00:41:41;;;;;;;14.53;8.15;;;;;;;3.54;89.47;99050.64;1719484;83;25547;-76
2022/01/28 00:44:08;;;;;;;18.52;8.00;;;;;;;3.53;89.31;99068.56;1697695;83;25631;-73
2022/01/28 00:46:34;;;;;;;14.75;7.28;;;;;;;3.52;89.33;99054.97;1697628;83;27284;-73
2022/01/28 00:49:01;;;;;;;13.05;7.25;;;;;;;3.52;89.02;99054.97;1719419;83;25613;-73
2022/01/28 00:51:27;;;;;;;14.00;6.92;;;;;;;3.51;88.52;99062.72;1723979;81;25600;-73
2022/01/28 00:53:53;;;;;;;19.57;8.83;;;;;;;3.50;88.14;99045.08;1725408;83;25655;-73
2022/01/28 00:56:20;;;;;;;14.30;7.35;;;;;;;3.50;88.30;99046.42;1725456;83;25552;-74
2022/01/28 00:58:46;;;;;;;13.80;6.30;;;;;;;3.48;88.35;99050.48;1725433;82;27444;-74
2022/01/28 01:01:13;;;;;;;12.23;5.85;;;;;;;3.48;88.53;99055.83;1725336;83;25585;-74
2022/01/28 01:03:39;;;;;;;13.10;5.75;;;;;;;3.45;87.99;99043.05;1725461;83;25599;-74
2022/01/28 01:06:05;;;;;;;9.83;5.20;;;;;;;3.44;88.14;99030.75;1725402;83;25676;-74
2022/01/28 01:08:32;;;;;;;10.95;4.80;;;;;;;3.42;88.16;99049.75;1725437;83;25599;-74
2022/01/28 01:10:59;;;;;;;7.70;4.33;;;;;;;3.41;87.17;99024.67;1725452;83;27300;-74
2022/01/28 01:13:26;;;;;;;12.58;5.53;;;;;;;3.39;87.91;99021.48;1725321;83;25513;-75
2022/01/28 01:15:56;;;;;;;8.90;4.75;;;;;;;3.36;87.65;99031.67;1725429;83;25559;-75
2022/01/28 01:18:38;;;;;;;15.80;5.05;;;;;;;3.34;87.05;99018.36;1725026;83;25626;-74
2022/01/28 01:23:28;;;;;;;9.83;4.95;;;;;;;3.28;87.00;99019.52;1725520;83;27323;-75
2022/01/28 01:25:59;;;;;;;10.72;4.10;;;;;;;3.27;87.03;99009.91;1725017;82;25376;-75
2022/01/28 01:28:27;;;;;;;11.80;4.25;;;;;;;3.24;86.96;98993.92;1724652;83;25451;-75
2022/01/28 01:30:50;;;;;;;10.68;4.20;;;;;;;3.21;87.21;99003.06;1725013;83;32348;-75
2022/01/28 01:33:19;;;;;;;8.88;3.70;;;;;;;3.18;86.92;98995.89;1725480;83;25423;-75
2022/01/28 01:35:45;;;;;;;10.90;4.03;;;;;;;3.16;87.30;98998.59;1725367;83;27376;-75
2022/01/28 01:38:12;;;;;;;8.25;3.92;;;;;;;3.14;87.25;98991.41;1725340;83;25657;-74
2022/01/28 01:40:48;;;;;;;9.03;3.65;;;;;;;3.12;86.82;98973.55;1725399;83;25413;-74
2022/01/28 01:43:18;;;;;;;9.43;3.40;;;;;;;3.11;86.96;98985.30;1724733;81;26181;-74
2022/01/28 01:53:41;;;;;;;6.08;3.58;;;;;;;3.07;86.72;98961.05;1755809;81;25651;-74
2022/01/28 01:56:07;;;;;;;4.55;2.45;;;;;;;3.06;85.81;98950.66;1755766;81;26239;-74
2022/01/28 01:58:35;;;;;;;7.70;2.70;;;;;;;3.07;85.72;98963.72;1755792;81;25563;-74
2022/01/28 02:01:03;;;;;;;8.28;3.10;;;;;;;3.06;85.02;98955.45;1755722;81;27963;-74
2022/01/28 02:03:29;;;;;;;6.70;3.02;;;;;;;3.07;85.84;98950.92;1755621;81;25416;-74
2022/01/28 02:05:58;;;;;;;5.30;2.90;;;;;;;3.07;85.49;98945.02;1751468;81;25537;-74
2022/01/28 02:08:27;;;;;;;6.12;2.58;;;;;;;3.07;85.51;98941.02;1749750;82;25598;-74
2022/01/28 02:10:57;;;;;;;12.85;2.75;;;;;;;3.08;85.72;98932.45;1749942;82;25683;-74
2022/01/28 02:13:32;;;;;;;5.78;2.55;;;;;;;3.07;84.49;98926.32;1749814;80;27323;-74
2022/01/28 02:16:00;;;;;;;7.78;2.60;;;;;;;3.09;85.00;98920.69;1749713;80;25545;-74
2022/01/28 02:18:26;;;;;;;8.00;2.70;;;;;;;3.08;85.42;98895.86;1749778;82;25545;-74
2022/01/28 02:21:03;;;;;;;11.60;4.20;;;;;;;3.09;85.55;98921.47;1749755;82;25576;-74
2022/01/28 02:23:23;;;;;;;7.80;3.07;;;;;;;3.09;85.39;98919.35;1748557;81;25443;-74
2022/01/28 02:25:50;;;;;;;6.42;3.08;;;;;;;3.09;84.66;98892.08;1749778;82;27450;-74
2022/01/28 02:28:20;;;;;;;6.78;3.00;;;;;;;3.09;84.16;98896.09;1749674;82;25385;-74
2022/01/28 02:30:45;;;;;;;8.75;3.52;;;;;;;3.09;84.60;98894.76;1749393;81;25546;-74
2022/01/28 02:33:21;;;;;;;8.90;3.87;;;;;;;3.08;84.74;98901.20;1749717;82;25639;-74
2022/01/28 02:35:48;;;;;;;6.37;3.30;;;;;;;3.10;85.07;98904.89;1749648;81;25427;-74
2022/01/28 02:38:17;;;;;;;10.75;3.60;;;;;;;3.11;84.53;98889.13;1749759;82;27951;-74
2022/01/28 02:40:52;;;;;;;7.87;3.37;;;;;;;3.09;84.70;98886.74;1749827;82;25362;-74
2022/01/28 02:45:40;;;;;;;10.60;3.77;;;;;;;3.09;84.75;98880.06;1749766;82;25683;-74
2022/01/28 02:48:14;;;;;;;7.75;3.55;;;;;;;3.09;85.25;98879.28;1749800;82;25374;-74
2022/01/28 02:50:45;;;;;;;7.67;3.25;;;;;;;3.08;85.29;98886.51;1748681;80;27385;-74
2022/01/28 02:53:09;;;;;;;5.97;3.30;;;;;;;3.06;85.89;98869.95;1748135;81;25436;-74
2022/01/28 02:55:39;;;;;;;12.47;3.50;;;;;;;3.04;86.02;98888.16;1749629;82;25619;-74
2022/01/28 02:58:17;;;;;;;5.70;3.25;;;;;;;2.97;86.56;98861.04;1749471;80;25683;-74
2022/01/28 03:00:33;;;;;;;11.18;4.33;;;;;;;2.90;87.02;98864.64;1747835;80;25606;-74
2022/01/28 03:02:59;;;;;;;8.23;2.87;;;;;;;2.84;87.46;98875.14;1749784;82;27335;-74
2022/01/28 03:05:33;;;;;;;11.33;3.40;;;;;;;2.72;88.12;98864.37;1749674;82;25452;-75
2022/01/28 03:07:58;;;;;;;10.88;4.75;;;;;;;2.61;88.31;98861.07;1748733;80;25531;-75
2022/01/28 03:10:29;;;;;;;8.00;2.70;;;;;;;2.51;88.67;98873.24;1749731;82;25662;-75
2022/01/28 03:15:35;;;;;;;6.67;3.37;;;;;;;2.36;90.17;98892.15;1749776;82;27403;-75
2022/01/28 03:20:42;;;;;;;8.13;3.12;;;;;;;2.23;91.56;98854.95;1749879;82;25524;-76
2022/01/28 03:23:05;;;;;;;11.33;4.00;;;;;;;2.18;91.25;98859.03;1749113;81;26210;-75
2022/01/28 03:25:35;;;;;;;6.42;2.90;;;;;;;2.14;92.28;98857.48;1749769;82;25723;-76
2022/01/28 03:28:00;;;;;;;8.75;3.62;;;;;;;2.10;92.09;98851.70;1749583;81;27336;-76
2022/01/28 03:30:27;;;;;;;8.40;3.65;;;;;;;2.10;91.85;98843.70;1726124;82;25536;-76
2022/01/28 03:32:54;;;;;;;8.55;3.33;;;;;;;2.07;93.27;98849.59;1749732;82;25457;-76
2022/01/28 03:35:20;;;;;;;17.85;5.28;;;;;;;2.05;92.62;98849.88;1749636;82;26347;-76
2022/01/28 03:37:47;;;;;;;13.70;5.58;;;;;;;2.02;93.59;98847.78;1749796;82;25798;-76
2022/01/28 03:40:18;;;;;;;9.55;3.87;;;;;;;2.00;93.27;98848.62;1749741;82;27341;-76
2022/01/28 03:42:42;;;;;;;7.65;3.05;;;;;;;1.99;93.04;98846.50;1749131;81;25730;-77
2022/01/28 03:45:09;;;;;;;8.43;3.37;;;;;;;1.96;93.98;98855.07;1749830;82;25587;-77
2022/01/28 03:47:36;;;;;;;8.68;3.65;;;;;;;1.93;94.10;98826.30;1749668;82;25575;-77
2022/01/28 03:50:05;;;;;;;11.70;4.97;;;;;;;1.92;94.02;98839.92;1749743;82;25433;-76
2022/01/28 03:52:31;;;;;;;9.35;3.80;;;;;;;1.89;94.83;98847.97;1750304;82;27335;-76
2022/01/28 03:54:58;;;;;;;7.42;4.37;;;;;;;1.89;94.19;98844.48;1750419;82;25581;-76
2022/01/28 03:57:24;;;;;;;8.03;4.30;;;;;;;1.85;94.36;98845.05;1750525;82;25637;-76
2022/01/28 03:59:50;;;;;;;8.58;3.77;;;;;;;1.86;94.72;98846.66;1750577;82;25777;-76
2022/01/28 04:02:21;;;;;;;9.10;4.90;;;;;;;1.85;94.22;98839.72;1751533;81;25522;-75
2022/01/28 04:12:46;;;;;;;5.45;3.50;;;;;;;1.83;95.10;98835.77;1718237;83;26192;-76
2022/01/28 04:15:24;;;;;;;8.15;3.77;;;;;;;1.82;95.58;98833.66;1718280;83;25667;-77
2022/01/28 04:17:49;;;;;;;8.73;3.50;;;;;;;1.82;95.95;98834.17;1718333;83;27545;-78
2022/01/28 04:20:15;;;;;;;7.65;3.40;;;;;;;1.82;96.07;98830.17;1718181;83;25603;-78
2022/01/28 04:22:42;;;;;;;6.72;2.75;;;;;;;1.81;95.97;98833.39;1718267;83;25734;-77
2022/01/28 04:25:09;;;;;;;6.60;2.67;;;;;;;1.80;96.61;98815.80;1718244;83;25614;-77
2022/01/28 04:27:35;;;;;;;6.15;2.98;;;;;;;1.80;95.99;98832.34;1718265;83;25659;-77
2022/01/28 04:30:03;;;;;;;3.37;2.52;;;;;;;1.79;96.22;98824.89;1718270;83;28033;-77
2022/01/28 04:32:31;;;;;;;5.20;2.77;;;;;;;1.80;96.53;98828.34;1718159;83;25773;-78
2022/01/28 04:34:59;;;;;;;4.90;2.25;;;;;;;1.80;96.14;98830.45;1718263;83;25635;-75
2022/01/28 04:37:34;;;;;;;7.42;2.58;;;;;;;1.79;97.34;98832.10;1718213;83;25626;-75
2022/01/28 04:42:49;;;;;;;4.58;2.35;;;;;;;1.79;96.64;98838.77;1718243;83;27542;-77
2022/01/28 04:45:11;;;;;;;6.80;2.60;;;;;;;1.79;96.89;98836.89;1718199;83;25437;-75
2022/01/28 04:47:41;;;;;;;4.53;2.35;;;;;;;1.78;97.18;98845.95;1743900;82;32851;-77
2022/01/28 05:26:56;;;;;;;5.10;3.17;;;;;;;1.81;97.63;98873.93;1655044;86;25486;-75
2022/01/28 05:29:21;;;;;;;4.40;3.27;;;;;;;1.82;97.99;98872.31;1654735;86;25821;-78
2022/01/28 05:31:47;;;;;;;6.78;2.72;;;;;;;1.82;98.17;98881.64;1684695;82;25501;-78
2022/01/28 05:34:15;;;;;;;8.60;3.02;;;;;;;1.84;98.03;98876.81;1706073;82;27958;-78
2022/01/28 05:36:41;;;;;;;4.12;2.98;;;;;;;1.84;98.30;98869.36;1731531;82;25679;-76
2022/01/28 05:39:08;;;;;;;5.45;2.55;;;;;;;1.86;98.41;98887.98;1731615;82;25560;-76
2022/01/28 05:41:34;;;;;;;7.22;2.92;;;;;;;1.86;98.33;98890.66;1731593;82;25631;-76
2022/01/28 05:44:02;;;;;;;4.30;2.98;;;;;;;1.89;98.58;98887.16;1731640;82;25474;-76
2022/01/28 05:46:30;;;;;;;4.83;3.00;;;;;;;1.89;98.48;98889.30;1731073;82;27321;-77
2022/01/28 05:48:57;;;;;;;11.65;6.15;;;;;;;1.91;98.40;98898.32;1731006;82;25571;-77
2022/01/28 05:51:24;;;;;;;6.60;3.58;;;;;;;1.94;98.57;98901.76;1731143;82;25427;-78
2022/01/28 05:53:50;;;;;;;5.42;3.17;;;;;;;1.96;98.82;98895.59;1731016;82;26340;-77
2022/01/28 05:56:17;;;;;;;4.80;3.12;;;;;;;1.98;98.82;98900.91;1731285;82;25628;-80
2022/01/28 05:58:43;;;;;;;6.35;3.20;;;;;;;2.02;99.01;98909.13;1706164;82;27335;-77
2022/01/28 06:01:10;;;;;;;5.58;3.30;;;;;;;2.05;98.99;98908.56;1730994;82;25450;-77
2022/01/28 06:03:37;;;;;;;4.03;2.85;;;;;;;2.09;99.00;98920.78;1731117;82;25625;-77
2022/01/28 06:06:03;;;;;;;4.70;3.08;;;;;;;2.11;99.20;98915.95;1731044;82;26164;-77
2022/01/28 06:08:30;;;;;;;7.03;4.08;;;;;;;2.14;99.21;98911.39;1716224;82;25538;-77
2022/01/28 06:10:56;;;;;;;5.95;3.55;;;;;;;2.17;99.03;98927.61;1714817;83;27948;-77
2022/01/28 06:13:23;;;;;;;6.70;4.10;;;;;;;2.20;99.19;98923.05;1715190;83;25522;-82
2022/01/28 06:15:49;;;;;;;5.17;3.30;;;;;;;2.22;99.06;98926.21;1715587;83;25487;-79
2022/01/28 06:18:16;;;;;;;8.45;3.67;;;;;;;2.25;99.10;98912.85;1714950;83;25677;-79
2022/01/28 06:20:43;;;;;;;4.60;3.00;;;;;;;2.27;98.98;98923.23;1714962;83;25611;-77
2022/01/28 06:23:12;;;;;;;6.15;3.52;;;;;;;2.30;98.84;98931.98;1714598;83;27325;-78
2022/01/28 06:25:39;;;;;;;5.35;3.35;;;;;;;2.31;98.91;98930.91;1714777;83;25629;-79
2022/01/28 06:28:06;;;;;;;3.65;2.58;;;;;;;2.33;98.84;98933.53;1714692;83;26183;-78
2022/01/28 06:30:32;;;;;;;4.50;3.00;;;;;;;2.34;98.80;98938.34;1714801;83;25615;-80
2022/01/28 06:32:59;;;;;;;5.72;3.45;;;;;;;2.36;98.83;98940.19;1714928;83;25597;-79
2022/01/28 06:35:25;;;;;;;3.80;3.02;;;;;;;2.37;98.98;98943.11;1714789;83;27428;-77
2022/01/28 06:37:52;;;;;;;5.20;2.80;;;;;;;2.37;98.80;98954.58;1715260;83;25686;-78
2022/01/28 06:40:19;;;;;;;3.92;2.98;;;;;;;2.39;98.78;98947.63;1715610;83;25596;-78
2022/01/28 06:42:47;;;;;;;6.37;4.37;;;;;;;2.40;98.79;98953.20;1715382;83;25661;-79
2022/01/28 06:45:13;;;;;;;4.47;3.22;;;;;;;2.41;98.83;98963.58;1715511;83;25599;-78
2022/01/28 06:47:40;;;;;;;6.53;3.83;;;;;;;2.41;98.79;98964.92;1715242;82;27348;-79
2022/01/28 06:50:09;;;;;;;8.80;3.58;;;;;;;2.41;98.65;98966.25;1715624;83;25299;-79
2022/01/28 06:52:37;;;;;;;3.75;3.12;;;;;;;2.42;98.82;98957.17;1715381;83;25455;-77
2022/01/28 06:55:05;;;;;;;4.90;3.02;;;;;;;2.42;98.66;98979.86;1701939;83;25787;-79
2022/01/28 06:57:32;;;;;;;4.50;2.83;;;;;;;2.41;98.49;98975.59;1701687;83;25456;-80
2022/01/28 06:59:59;;;;;;;4.00;2.77;;;;;;;2.41;98.47;98980.14;1714986;83;27428;-79
2022/01/28 07:02:25;;;;;;;3.00;2.70;;;;;;;2.42;98.57;98985.75;1699106;83;25838;-79
2022/01/28 07:04:52;;;;;;;3.72;3.00;;;;;;;2.41;98.46;98982.27;1698601;83;25491;-79
2022/01/28 07:07:20;;;;;;;4.30;2.80;;;;;;;2.41;98.38;98988.94;1709288;82;26214;-79
2022/01/28 07:09:48;;;;;;;5.20;3.37;;;;;;;2.41;98.49;98994.28;1731812;82;25439;-80
2022/01/28 07:12:17;;;;;;;4.50;3.37;;;;;;;2.43;98.56;99004.15;1731402;82;27393;-79
2022/01/28 07:14:45;;;;;;;3.87;3.08;;;;;;;2.43;98.47;99006.81;1731932;82;25644;-80
2022/01/28 07:17:11;;;;;;;3.95;3.08;;;;;;;2.42;98.50;99011.89;1731732;82;25659;-78
2022/01/28 07:19:47;;;;;;;10.38;5.92;;;;;;;2.42;98.50;99017.23;1732210;82;26171;-80
2022/01/28 07:22:14;;;;;;;17.40;10.38;;;;;;;2.41;98.55;99011.63;1732219;82;25299;-77
2022/01/28 07:24:42;;;;;;;5.12;3.87;;;;;;;2.41;98.53;99009.50;1730940;82;27331;-78
2022/01/28 07:27:09;;;;;;;4.50;3.45;;;;;;;2.41;98.70;99015.63;1731152;82;25597;-79
2022/01/28 07:29:35;;;;;;;6.78;4.37;;;;;;;2.41;98.64;99031.64;1731091;82;25672;-79
2022/01/28 07:32:02;;;;;;;6.80;3.67;;;;;;;2.41;98.57;99024.97;1731125;82;25593;-79
2022/01/28 07:34:29;;;;;;;4.25;2.90;;;;;;;2.41;98.59;99030.86;1731550;82;25642;-79
2022/01/28 07:36:58;;;;;;;4.47;3.00;;;;;;;2.41;98.65;99050.88;1731927;82;27460;-79
2022/01/28 07:39:24;;;;;;;4.50;3.05;;;;;;;2.40;98.66;99046.08;1731336;81;25323;-80
2022/01/28 07:41:50;;;;;;;3.72;2.90;;;;;;;2.40;98.46;99040.75;1731593;82;25656;-80
2022/01/28 07:44:17;;;;;;;4.70;3.40;;;;;;;2.42;98.41;99059.15;1731414;82;25719;-79
2022/01/28 07:46:44;;;;;;;5.78;3.25;;;;;;;2.42;98.40;99053.26;1731530;82;25324;-80
2022/01/28 07:49:10;;;;;;;6.62;3.20;;;;;;;2.42;98.22;99051.14;1731223;82;27390;-80
2022/01/28 07:51:39;;;;;;;5.28;3.25;;;;;;;2.41;98.24;99058.33;1732463;82;25656;-79
2022/01/28 07:54:06;;;;;;;6.65;3.80;;;;;;;2.43;98.29;99067.39;1732802;81;25537;-81
2022/01/28 07:56:32;;;;;;;3.70;3.20;;;;;;;2.43;98.36;99079.41;1732055;81;25457;-78
2022/01/28 07:58:59;;;;;;;5.53;3.10;;;;;;;2.43;98.23;99094.08;1731951;82;25587;-78
2022/01/28 08:01:25;;;;;;;6.22;4.17;;;;;;;2.44;98.19;99085.01;1731777;81;28019;-79
2022/01/28 08:03:52;;;;;;;5.78;3.80;;;;;;;2.42;98.01;99097.30;1732700;82;25667;-79
2022/01/28 08:06:20;;;;;;;8.33;4.08;;;;;;;2.43;98.08;99107.42;1707421;82;25324;-78
2022/01/28 08:08:47;;;;;;;4.78;3.00;;;;;;;2.44;98.19;99105.02;1709753;82;25722;-78
2022/01/28 08:11:14;;;;;;;3.05;2.55;;;;;;;2.45;98.26;99103.92;1702941;84;25479;-79
2022/01/28 08:13:44;;;;;;;3.80;2.60;;;;;;;2.44;98.06;99113.03;1702672;84;28234;-79
2022/01/28 08:16:10;;;;;;;4.47;3.08;;;;;;;2.43;97.96;99112.25;1699484;84;25332;-78
2022/01/28 08:18:37;;;;;;;5.12;3.62;;;;;;;2.44;98.13;99113.03;1692515;84;25751;-78
2022/01/28 08:21:03;;;;;;;4.03;3.05;;;;;;;2.46;97.99;99127.43;1691261;84;25683;-79
2022/01/28 08:23:30;;;;;;;5.25;3.15;;;;;;;2.46;98.14;99134.10;1694440;84;25703;-78
2022/01/28 08:26:00;;;;;;;4.20;2.77;;;;;;;2.44;98.04;99143.73;1694765;84;27406;-78
2022/01/28 08:28:26;;;;;;;4.67;3.02;;;;;;;2.42;97.87;99138.67;1694929;84;25637;-78
2022/01/28 08:30:54;;;;;;;5.87;3.30;;;;;;;2.43;97.97;99148.28;1694849;84;25332;-78
2022/01/28 08:33:24;;;;;;;10.08;4.92;;;;;;;2.42;97.85;99161.36;1694914;84;25607;-79
2022/01/28 08:35:53;;;;;;;5.70;3.98;;;;;;;2.40;97.56;99160.03;1695178;84;26303;-79
2022/01/28 08:38:31;;;;;;;4.37;3.05;;;;;;;2.37;97.44;99164.63;1673100;84;27863;-78
2022/01/28 08:40:58;;;;;;;7.05;3.80;;;;;;;2.35;97.45;99175.58;1666436;84;25616;-80
2022/01/28 08:43:26;;;;;;;15.93;6.30;;;;;;;2.32;97.47;99184.14;1667229;86;25327;-80
2022/01/28 08:45:53;;;;;;;6.65;4.10;;;;;;;2.31;97.60;99191.88;1668017;86;25637;-80
2022/01/28 08:48:19;;;;;;;6.67;3.95;;;;;;;2.32;97.59;99196.70;1667839;86;25357;-80
2022/01/28 08:50:46;;;;;;;10.65;4.35;;;;;;;2.31;97.82;99209.22;1656713;86;27907;-79
2022/01/28 08:53:14;;;;;;;9.58;4.40;;;;;;;2.30;97.71;99194.82;1676955;84;25659;-80
2022/01/28 08:55:41;;;;;;;7.70;4.42;;;;;;;2.29;97.66;99218.59;1695590;84;25766;-80
2022/01/28 08:58:13;;;;;;;5.42;3.45;;;;;;;2.28;97.63;99223.66;1695900;84;25624;-80
2022/01/28 09:00:42;;;;;;;7.00;3.10;;;;;;;2.28;97.67;99228.45;1693269;84;25591;-80
2022/01/28 09:03:08;;;;;;;7.12;3.27;;;;;;;2.28;97.76;99237.00;1711884;83;27397;-79
2022/01/28 09:05:35;;;;;;;9.13;4.75;;;;;;;2.27;97.66;99236.77;1668739;85;25819;-79
2022/01/28 09:08:07;;;;;;;7.17;5.30;;;;;;;2.28;97.86;99233.00;1698017;82;25675;-81
2022/01/28 09:10:30;;;;;;;6.90;3.60;;;;;;;2.31;97.90;99263.14;1700086;84;25638;-79
2022/01/28 09:15:32;;;;;;;7.30;5.08;;;;;;;2.33;98.02;99267.11;1639470;87;27426;-79
2022/01/28 09:17:58;;;;;;;5.45;3.55;;;;;;;2.35;97.95;99276.17;1630839;86;25628;-79
2022/01/28 09:20:25;;;;;;;3.75;3.25;;;;;;;2.35;97.81;99285.00;1655286;86;25650;-81
2022/01/28 09:22:51;;;;;;;5.97;4.28;;;;;;;2.36;97.67;99279.91;1655302;86;25739;-79
2022/01/28 09:25:19;;;;;;;5.17;2.92;;;;;;;2.37;97.63;99278.05;1654533;86;25645;-80
2022/01/28 09:27:46;;;;;;;2.85;2.25;;;;;;;2.34;97.49;99295.41;1654457;86;28032;-79
2022/01/28 09:30:12;;;;;;;4.58;2.67;;;;;;;2.34;97.33;99307.41;1654642;86;25359;-79
2022/01/28 09:32:39;;;;;;;11.60;6.25;;;;;;;2.32;97.29;99312.23;1655438;86;25420;-79
2022/01/28 09:35:07;;;;;;;7.85;4.05;;;;;;;2.32;97.18;99323.45;1656270;86;25599;-79
2022/01/28 09:37:34;;;;;;;7.10;3.62;;;;;;;2.31;97.26;99328.52;1655467;86;25790;-79
2022/01/28 09:40:04;;;;;;;9.90;4.78;;;;;;;2.31;97.30;99344.53;1654661;86;27407;-79
2022/01/28 09:42:35;;;;;;;8.43;3.62;;;;;;;2.30;97.19;99343.75;1671112;85;25286;-79
2022/01/28 09:45:03;;;;;;;4.78;2.47;;;;;;;2.30;97.36;99354.94;1662797;86;25711;-78
2022/01/28 09:47:31;;;;;;;3.72;2.33;;;;;;;2.31;97.36;99359.21;1668127;86;29065;-79
2022/01/28 09:49:58;;;;;;;7.42;3.80;;;;;;;2.30;97.33;99363.77;1668457;86;25392;-80
2022/01/28 09:52:25;;;;;;;3.52;2.55;;;;;;;2.33;97.46;99377.86;1682617;83;27437;-80
2022/01/28 09:54:51;;;;;;;3.52;2.80;;;;;;;2.34;97.40;99382.69;1714307;83;25627;-79
2022/01/28 09:57:20;;;;;;;13.30;8.83;;;;;;;2.34;97.34;99383.47;1714438;83;25612;-79
2022/01/28 09:59:48;;;;;;;8.53;4.80;;;;;;;2.35;97.13;99388.27;1713843;83;25624;-81
2022/01/28 10:02:15;;;;;;;15.05;10.53;;;;;;;2.35;97.12;99393.60;1731200;82;25232;-80
2022/01/28 10:04:43;;;;;;;3.92;2.37;;;;;;;2.37;97.14;99392.81;1731110;82;27549;-80
2022/01/28 10:07:14;;;;;;;4.45;3.40;;;;;;;2.35;96.99;99390.42;1731037;82;25668;-80
2022/01/28 10:10:01;;;;;;;10.18;7.75;;;;;;;2.35;96.74;99410.44;1730740;82;25739;-79
2022/01/28 10:12:39;;;;;;;4.42;2.47;;;;;;;2.35;96.63;99420.29;1731125;82;25707;-79
2022/01/28 10:15:05;;;;;;;2.83;2.08;;;;;;;2.34;96.47;99419.50;1728099;82;25490;-78
2022/01/28 10:17:56;;;;;;;2.77;2.02;;;;;;;2.32;96.45;99421.66;1731252;82;27305;-80
2022/01/28 10:20:25;;;;;;;3.70;1.80;;;;;;;2.33;96.46;99437.13;1729982;82;25676;-79
2022/01/28 10:22:58;;;;;;;3.00;2.22;;;;;;;2.32;96.27;99430.99;1731186;82;25696;-79
2022/01/28 10:25:28;;;;;;;3.65;2.20;;;;;;;2.31;96.16;99444.61;1732117;82;25637;-79
2022/01/28 10:28:07;;;;;;;4.28;2.27;;;;;;;2.33;96.22;99454.47;1732459;82;25559;-79
2022/01/28 10:30:40;;;;;;;3.98;2.22;;;;;;;2.33;96.05;99462.48;1732555;82;27323;-81
2022/01/28 10:33:22;;;;;;;3.17;2.45;;;;;;;2.32;95.85;99473.70;1731830;82;25933;-77
2022/01/28 10:35:52;;;;;;;2.70;2.27;;;;;;;2.33;95.70;99470.48;1730916;82;25427;-79
2022/01/28 10:38:35;;;;;;;3.12;1.72;;;;;;;2.33;95.50;99491.29;1731153;82;26629;-78
2022/01/28 10:41:25;;;;;;;2.98;1.52;;;;;;;2.33;95.30;99494.50;1730784;82;25497;-80
2022/01/28 10:43:55;;;;;;;2.52;1.57;;;;;;;2.33;94.83;99488.63;1729063;81;27362;-77
2022/01/28 10:46:26;;;;;;;3.27;1.77;;;;;;;2.32;94.80;99505.72;1730652;82;25411;-76
2022/01/28 10:48:56;;;;;;;3.50;2.22;;;;;;;2.35;94.86;99509.19;1730811;81;25736;-79
2022/01/28 10:51:42;;;;;;;3.33;2.35;;;;;;;2.37;94.86;99519.59;1731140;82;25625;-80
2022/01/28 10:54:16;;;;;;;4.75;2.30;;;;;;;2.38;94.57;99516.66;1730746;82;25332;-77
2022/01/28 10:56:57;;;;;;;5.65;2.52;;;;;;;2.40;94.57;99517.17;1689510;84;27507;-79
2022/01/28 10:59:39;;;;;;;4.28;2.60;;;;;;;2.42;94.29;99527.03;1702221;84;25648;-79
2022/01/28 11:02:06;;;;;;;3.17;1.95;;;;;;;2.47;94.56;99521.39;1730850;82;25624;-77
2022/01/28 11:04:33;;;;;;;5.80;2.70;;;;;;;2.56;94.54;99551.27;1730889;82;26171;-81
2022/01/28 11:07:03;;;;;;;4.35;2.35;;;;;;;2.63;93.97;99544.84;1730936;82;25275;-78
2022/01/28 11:09:30;;;;;;;2.87;2.15;;;;;;;2.66;92.97;99528.28;1731067;82;33132;-80
2022/01/28 11:11:56;;;;;;;2.60;1.57;;;;;;;2.73;92.93;99553.59;1682494;82;25741;-79
2022/01/28 11:14:25;;;;;;;2.85;1.55;;;;;;;2.79;92.49;99557.03;1739614;81;25602;-80
2022/01/28 11:16:52;;;;;;;5.08;1.47;;;;;;;2.78;92.05;99556.23;1731077;82;25614;-80
2022/01/28 11:19:22;;;;;;;5.95;2.40;;;;;;;2.76;91.75;99577.63;1730761;82;25636;-77
2022/01/28 11:22:16;;;;;;;5.22;1.80;;;;;;;2.78;91.12;99568.80;1730730;82;28063;-77
2022/01/28 11:25:17;;;;;;;4.72;2.60;;;;;;;2.76;91.45;99582.97;1730773;82;25721;-76
2022/01/28 11:27:47;;;;;;;3.70;2.40;;;;;;;2.74;91.34;99587.77;1731015;82;25422;-75
2022/01/28 11:30:28;;;;;;;5.10;1.92;;;;;;;2.74;91.36;99591.77;1730719;82;26266;-77
2022/01/28 11:33:06;;;;;;;3.08;1.72;;;;;;;2.75;90.59;99598.72;1730793;82;25540;-77
2022/01/28 11:35:37;;;;;;;9.33;2.50;;;;;;;2.74;90.41;99601.94;1733238;81;27334;-78
2022/01/28 11:38:26;;;;;;;1.90;1.20;;;;;;;2.78;90.20;99608.87;1759050;81;25624;-77
2022/01/28 11:41:12;;;;;;;7.13;1.50;;;;;;;2.79;89.67;99618.45;1745703;81;25292;-77
2022/01/28 11:43:53;;;;;;;2.80;0.93;;;;;;;2.85;90.06;99625.39;1737170;81;26179;-77
2022/01/28 11:46:24;;;;;;;3.33;1.35;;;;;;;2.91;89.48;99632.32;1735358;81;25658;-76
2022/01/28 11:49:02;;;;;;;4.65;1.60;;;;;;;2.99;89.38;99625.59;1759187;81;27333;-75
2022/01/28 11:51:38;;;;;;;2.90;1.90;;;;;;;3.03;88.09;99637.34;1759065;81;25747;-77
2022/01/28 11:54:08;;;;;;;2.37;1.10;;;;;;;3.07;88.38;99637.05;1759111;81;25604;-76
2022/01/28 11:57:01;;;;;;;3.45;1.32;;;;;;;3.08;87.02;99636.50;1759144;81;25652;-79
2022/01/28 11:59:31;;;;;;;6.10;2.33;;;;;;;3.11;87.35;99639.97;1759312;81;25256;-77
2022/01/28 12:02:02;;;;;;;4.25;1.80;;;;;;;3.14;86.21;99649.56;1759317;81;27420;-77
2022/01/28 12:04:36;;;;;;;3.12;1.40;;;;;;;3.13;86.58;99662.69;1758846;81;25752;-76
2022/01/28 12:07:15;;;;;;;3.33;1.45;;;;;;;3.13;86.55;99665.36;1759232;81;26009;-77
2022/01/28 12:09:54;;;;;;;3.08;1.77;;;;;;;3.12;86.48;99668.30;1758980;81;25666;-77
2022/01/28 12:12:46;;;;;;;3.35;1.35;;;;;;;3.12;85.59;99654.94;1759253;81;33121;-77
2022/01/28 12:15:15;;;;;;;3.75;1.80;;;;;;;3.11;85.81;99681.39;1759094;81;28150;-76
2022/01/28 12:17:45;;;;;;;5.17;1.70;;;;;;;3.13;86.37;99681.91;1758890;81;25369;-77
2022/01/28 12:20:24;;;;;;;4.22;1.62;;;;;;;3.17;85.53;99678.97;1759093;81;25578;-77
2022/01/28 12:23:11;;;;;;;3.52;1.67;;;;;;;3.14;85.54;99682.97;1758458;81;25682;-77
2022/01/28 12:25:46;;;;;;;2.10;1.50;;;;;;;3.12;84.81;99687.00;1759621;81;25662;-77
2022/01/28 12:28:26;;;;;;;4.65;2.00;;;;;;;3.08;85.11;99697.44;1759399;81;27328;-78
2022/01/28 12:31:07;;;;;;;4.75;2.05;;;;;;;3.05;84.78;99697.16;1759217;81;25259;-80
2022/01/28 12:33:39;;;;;;;3.52;2.15;;;;;;;2.99;85.48;99709.20;1735160;81;25567;-77
2022/01/28 12:36:10;;;;;;;3.37;2.10;;;;;;;2.98;85.65;99702.28;1757389;81;26348;-76
2022/01/28 12:38:56;;;;;;;3.95;2.10;;;;;;;3.03;85.99;99712.16;1758974;81;25586;-76
2022/01/28 12:41:17;;;;;;;3.27;2.00;;;;;;;3.10;85.86;99706.50;1755189;81;27337;-76
2022/01/28 12:43:44;;;;;;;5.55;1.87;;;;;;;3.16;85.81;99714.22;1759202;81;25619;-75
2022/01/28 12:46:14;;;;;;;4.33;2.15;;;;;;;3.25;85.59;99720.34;1759237;81;25415;-75
2022/01/28 12:48:51;;;;;;;;;;;;;;;3.26;85.14;99724.63;1761826;81;25674;-76
2022/01/28 12:51:25;;;;;;;5.60;2.47;;;;;;;3.24;84.35;99735.59;1759217;81;25434;-75
2022/01/28 12:53:54;;;;;;;3.70;2.10;;;;;;;3.20;84.43;99723.83;1757376;81;27949;-76
2022/01/28 12:56:39;;;;;;;8.88;4.58;;;;;;;3.18;84.42;99747.36;1759128;81;25615;-76
2022/01/28 12:59:06;;;;;;;4.08;2.10;;;;;;;3.19;84.43;99746.30;1759182;81;25600;-76
2022/01/28 13:01:34;;;;;;;2.27;1.50;;;;;;;3.21;84.43;99768.20;1759178;81;25770;-76
2022/01/28 13:04:25;;;;;;;3.22;2.02;;;;;;;3.24;84.09;99760.19;1759257;81;25707;-76
2022/01/28 13:09:25;;;;;;;3.42;1.75;;;;;;;3.40;84.38;99765.72;1669727;85;25820;-76
2022/01/28 13:11:55;;;;;;;4.35;1.87;;;;;;;3.43;83.20;99766.52;1669689;85;25697;-77
2022/01/28 13:14:34;;;;;;;3.17;1.42;;;;;;;3.41;82.72;99782.59;1669598;85;26081;-76
2022/01/28 13:17:04;;;;;;;3.57;1.97;;;;;;;3.35;82.91;99783.94;1670038;85;25506;-76
2022/01/28 13:19:30;;;;;;;2.83;1.95;;;;;;;3.33;82.85;99790.08;1669681;85;27036;-76
2022/01/28 13:21:59;;;;;;;5.30;2.72;;;;;;;3.31;82.74;99792.23;1669626;85;25717;-76